createdAt,value
2022-12-23T00:14:38.853Z,86.43
2022-12-23T00:29:42.728Z,92.60
2022-12-23T00:44:47.279Z,97.37
2022-12-23T00:59:50.868Z,89.43
2022-12-23T01:14:53.927Z,101.07
2022-12-23T01:29:57.170Z,94.80
2022-12-23T01:45:03.941Z,93.03
2022-12-23T02:00:26.692Z,103.73
2022-12-23T02:15:55.500Z,98.63
2022-12-23T02:30:59.409Z,95.40
2022-12-23T02:46:21.842Z,101.50
2022-12-23T03:01:27.421Z,98.80
2022-12-23T03:16:30.462Z,175.67
2022-12-23T03:31:34.418Z,191.97
2022-12-23T03:46:49.388Z,176.30
2022-12-23T04:02:06.192Z,163.53
2022-12-23T04:17:10.395Z,166.93
2022-12-23T04:32:14.285Z,158.90
2022-12-23T04:47:18.224Z,153.57
2022-12-23T05:02:21.536Z,160.43
2022-12-23T05:17:24.964Z,154.77
2022-12-23T05:32:28.427Z,143.63
2022-12-23T05:47:32.820Z,151.03
2022-12-23T06:02:36.641Z,142.43
2022-12-23T06:17:40.641Z,127.90
2022-12-23T06:32:44.156Z,147.60
2022-12-23T06:47:47.312Z,149.07
2022-12-23T07:02:50.684Z,151.67
2022-12-23T07:17:56.530Z,139.70
2022-12-23T07:33:00.616Z,102.50
2022-12-23T07:48:04.042Z,106.77
2022-12-23T08:03:09.295Z,113.90
2022-12-23T08:18:14.214Z,126.67
2022-12-23T08:33:18.510Z,138.37
2022-12-23T08:48:22.699Z,146.07
2022-12-23T09:03:27.102Z,130.40
2022-12-23T09:18:32.778Z,112.87
2022-12-23T09:33:37.655Z,112.00
2022-12-23T09:48:46.325Z,123.00
2022-12-23T10:04:18.466Z,109.83
2022-12-23T10:19:27.450Z,120.33
2022-12-23T10:34:40.821Z,139.70
2022-12-23T10:49:50.547Z,135.70
2022-12-23T11:04:54.819Z,120.37
2022-12-23T11:20:15.642Z,103.50
2022-12-23T11:35:28.163Z,118.20
2022-12-23T11:50:35.997Z,103.70
2022-12-23T12:05:48.834Z,100.80
2022-12-23T12:20:57.972Z,52.67
2022-12-23T12:36:11.922Z,44.67
2022-12-23T12:51:16.298Z,41.33
2022-12-23T13:06:29.848Z,41.37
2022-12-23T13:21:47.934Z,42.50
2022-12-23T13:37:21.193Z,63.07
2022-12-23T13:52:31.167Z,57.30
2022-12-23T14:07:35.834Z,18.73
2022-12-23T14:22:54.851Z,8.83
2022-12-23T14:38:23.144Z,9.43
2022-12-23T14:53:34.898Z,8.13
2022-12-23T15:08:41.548Z,8.17
2022-12-23T15:23:52.032Z,16.53
2022-12-23T15:38:57.234Z,16.03
2022-12-23T15:54:04.624Z,21.40
2022-12-23T16:09:27.173Z,17.20
2022-12-23T16:24:32.085Z,19.90
2022-12-23T16:39:36.498Z,19.50
2022-12-23T16:54:43.670Z,10.87
2022-12-23T17:09:47.863Z,14.47
2022-12-23T17:24:52.543Z,19.57
2022-12-23T17:39:57.394Z,20.00
2022-12-23T17:55:01.615Z,22.50
2022-12-23T18:10:05.634Z,48.77
2022-12-23T18:25:22.883Z,68.10
2022-12-23T18:40:32.573Z,167.50
2022-12-23T18:55:37.552Z,58.43
2022-12-23T19:10:42.254Z,61.60
2022-12-23T19:25:54.577Z,78.23
2022-12-23T19:41:00.893Z,63.60
2022-12-23T19:56:07.980Z,60.90
2022-12-23T20:11:14.470Z,61.40
2022-12-23T20:26:19.475Z,54.50
2022-12-23T20:41:28.052Z,54.03
2022-12-23T20:56:32.563Z,53.10
2022-12-23T21:11:40.791Z,50.07
2022-12-23T21:26:49.050Z,55.20
2022-12-23T21:42:02.929Z,54.43
2022-12-23T21:57:07.046Z,48.80
2022-12-23T22:12:11.299Z,48.97
2022-12-23T22:27:15.520Z,48.17
2022-12-23T22:42:19.800Z,45.63
2022-12-23T22:57:24.377Z,45.40
2022-12-23T23:12:29.408Z,40.30
2022-12-23T23:27:33.237Z,39.10
2022-12-23T23:42:37.167Z,33.93
2022-12-23T23:57:40.989Z,34.20
